sensor_id;sensor_type;location;lat;lon;timestamp;temperature;humidity
7212;DHT22;3647;48.792;9.802;2023-04-25T04:30:14;7.60;99.90
7212;DHT22;3647;48.792;9.802;2023-04-25T04:32:41;7.70;99.90
7212;DHT22;3647;48.792;9.802;2023-04-25T04:35:08;7.70;99.90
7212;DHT22;3647;48.792;9.802;2023-04-25T04:37:36;7.80;99.90
7212;DHT22;3647;48.792;9.802;2023-04-25T04:40:04;7.80;99.90
7212;DHT22;3647;48.792;9.802;2023-04-25T04:42:32;7.80;99.90
7212;DHT22;3647;48.792;9.802;2023-04-25T04:44:59;8.00;99.90
7212;DHT22;3647;48.792;9.802;2023-04-25T04:47:28;7.70;99.90
7212;DHT22;3647;48.792;9.802;2023-04-25T04:49:56;7.70;99.90
7212;DHT22;3647;48.792;9.802;2023-04-25T04:52:23;8.10;99.90
7212;DHT22;3647;48.792;9.802;2023-04-25T04:54:50;7.70;99.90
7212;DHT22;3647;48.792;9.802;2023-04-25T04:57:17;8.60;99.90
7212;DHT22;3647;48.792;9.802;2023-04-25T04:59:44;7.80;99.90
7212;DHT22;3647;48.792;9.802;2023-04-25T05:02:11;7.80;99.90
7212;DHT22;3647;48.792;9.802;2023-04-25T05:04:39;7.90;99.90
7212;DHT22;3647;48.792;9.802;2023-04-25T05:07:06;7.90;99.90
7212;DHT22;3647;48.792;9.802;2023-04-25T05:09:33;7.90;99.90
7212;DHT22;3647;48.792;9.802;2023-04-25T05:12:00;10.60;99.90
7212;DHT22;3647;48.792;9.802;2023-04-25T05:14:27;8.00;99.90
7212;DHT22;3647;48.792;9.802;2023-04-25T05:16:54;8.00;99.90
7212;DHT22;3647;48.792;9.802;2023-04-25T05:19:21;8.00;99.90
7212;DHT22;3647;48.792;9.802;2023-04-25T05:21:50;8.20;99.90
7212;DHT22;3647;48.792;9.802;2023-04-25T05:24:17;8.00;99.90
7212;DHT22;3647;48.792;9.802;2023-04-25T05:26:44;8.00;99.90
7212;DHT22;3647;48.792;9.802;2023-04-25T05:29:11;8.10;99.90
7212;DHT22;3647;48.792;9.802;2023-04-25T05:31:38;8.00;99.90
7212;DHT22;3647;48.792;9.802;2023-04-25T05:34:04;9.00;99.90
7212;DHT22;3647;48.792;9.802;2023-04-25T05:36:32;8.10;99.90
7212;DHT22;3647;48.792;9.802;2023-04-25T05:39:00;8.20;99.90
7212;DHT22;3647;48.792;9.802;2023-04-25T05:41:28;8.20;99.90
7212;DHT22;3647;48.792;9.802;2023-04-25T05:43:55;8.10;99.90
7212;DHT22;3647;48.792;9.802;2023-04-25T05:46:22;8.10;99.90
7212;DHT22;3647;48.792;9.802;2023-04-25T05:48:49;9.70;99.90
7212;DHT22;3647;48.792;9.802;2023-04-25T05:51:16;8.10;99.90
7212;DHT22;3647;48.792;9.802;2023-04-25T05:53:44;8.20;99.90
7212;DHT22;3647;48.792;9.802;2023-04-25T05:56:12;8.20;99.90
7212;DHT22;3647;48.792;9.802;2023-04-25T05:58:39;8.30;99.90
7212;DHT22;3647;48.792;9.802;2023-04-25T06:01:06;9.20;99.90
7212;DHT22;3647;48.792;9.802;2023-04-25T06:03:34;8.40;99.90
7212;DHT22;3647;48.792;9.802;2023-04-25T06:06:03;8.50;99.90
7212;DHT22;3647;48.792;9.802;2023-04-25T06:08:31;8.50;99.90
7212;DHT22;3647;48.792;9.802;2023-04-25T06:10:58;8.70;99.90
7212;DHT22;3647;48.792;9.802;2023-04-25T06:13:26;9.40;99.90
7212;DHT22;3647;48.792;9.802;2023-04-25T06:15:53;9.00;99.90
7212;DHT22;3647;48.792;9.802;2023-04-25T06:18:20;9.10;99.90
7212;DHT22;3647;48.792;9.802;2023-04-25T06:20:47;9.20;99.90
7212;DHT22;3647;48.792;9.802;2023-04-25T06:23:14;9.50;99.90
7212;DHT22;3647;48.792;9.802;2023-04-25T06:25:41;9.80;99.90
7212;DHT22;3647;48.792;9.802;2023-04-25T06:28:07;10.10;99.90
7212;DHT22;3647;48.792;9.802;2023-04-25T06:30:36;10.20;99.90
7212;DHT22;3647;48.792;9.802;2023-04-25T06:33:03;11.40;99.90
7212;DHT22;3647;48.792;9.802;2023-04-25T06:35:29;10.10;99.90
7212;DHT22;3647;48.792;9.802;2023-04-25T06:37:56;10.50;99.90
7212;DHT22;3647;48.792;9.802;2023-04-25T06:40:23;10.40;99.90
7212;DHT22;3647;48.792;9.802;2023-04-25T06:42:50;10.70;99.90
7212;DHT22;3647;48.792;9.802;2023-04-25T06:45:17;10.90;99.90
7212;DHT22;3647;48.792;9.802;2023-04-25T06:47:45;10.90;99.90
7212;DHT22;3647;48.792;9.802;2023-04-25T06:50:12;12.10;99.90
7212;DHT22;3647;48.792;9.802;2023-04-25T06:52:39;10.60;99.90
7212;DHT22;3647;48.792;9.802;2023-04-25T06:55:07;10.40;99.90
7212;DHT22;3647;48.792;9.802;2023-04-25T06:57:34;10.20;99.90
7212;DHT22;3647;48.792;9.802;2023-04-25T07:00:00;10.20;99.90
7212;DHT22;3647;48.792;9.802;2023-04-25T07:02:30;10.50;99.90
7212;DHT22;3647;48.792;9.802;2023-04-25T07:04:59;11.30;99.90
7212;DHT22;3647;48.792;9.802;2023-04-25T07:07:26;10.90;99.90
7212;DHT22;3647;48.792;9.802;2023-04-25T07:09:52;11.10;99.90
7212;DHT22;3647;48.792;9.802;2023-04-25T07:12:20;11.80;99.90
7212;DHT22;3647;48.792;9.802;2023-04-25T07:14:47;11.40;99.90
7212;DHT22;3647;48.792;9.802;2023-04-25T07:17:14;11.60;99.90
7212;DHT22;3647;48.792;9.802;2023-04-25T07:19:41;11.80;99.90
7212;DHT22;3647;48.792;9.802;2023-04-25T07:22:10;11.90;99.90
7212;DHT22;3647;48.792;9.802;2023-04-25T07:24:37;11.70;99.90
7212;DHT22;3647;48.792;9.802;2023-04-25T07:27:04;11.70;99.90
7212;DHT22;3647;48.792;9.802;2023-04-25T07:29:31;11.70;99.90
7212;DHT22;3647;48.792;9.802;2023-04-25T07:32:01;11.50;99.90
7212;DHT22;3647;48.792;9.802;2023-04-25T07:34:28;11.90;99.90
7212;DHT22;3647;48.792;9.802;2023-04-25T07:36:55;12.20;99.90
7212;DHT22;3647;48.792;9.802;2023-04-25T07:39:23;13.20;99.90
7212;DHT22;3647;48.792;9.802;2023-04-25T07:41:50;12.20;99.90
7212;DHT22;3647;48.792;9.802;2023-04-25T07:44:17;12.20;99.90
7212;DHT22;3647;48.792;9.802;2023-04-25T07:46:44;12.30;99.90
7212;DHT22;3647;48.792;9.802;2023-04-25T07:49:11;12.20;99.90
7212;DHT22;3647;48.792;9.802;2023-04-25T07:51:38;12.30;99.90
7212;DHT22;3647;48.792;9.802;2023-04-25T07:54:06;12.30;99.90
7212;DHT22;3647;48.792;9.802;2023-04-25T07:56:35;12.30;99.90
7212;DHT22;3647;48.792;9.802;2023-04-25T07:59:02;12.20;99.90
7212;DHT22;3647;48.792;9.802;2023-04-25T08:01:29;12.40;99.90
7212;DHT22;3647;48.792;9.802;2023-04-25T08:03:55;12.90;99.90
7212;DHT22;3647;48.792;9.802;2023-04-25T08:06:22;11.80;99.90
7212;DHT22;3647;48.792;9.802;2023-04-25T08:08:49;11.80;99.90
7212;DHT22;3647;48.792;9.802;2023-04-25T08:11:16;11.80;99.90
7212;DHT22;3647;48.792;9.802;2023-04-25T08:13:44;11.80;99.90
7212;DHT22;3647;48.792;9.802;2023-04-25T08:16:11;12.10;99.90
7212;DHT22;3647;48.792;9.802;2023-04-25T08:18:38;11.60;99.90
7212;DHT22;3647;48.792;9.802;2023-04-25T08:21:05;11.60;99.90
7212;DHT22;3647;48.792;9.802;2023-04-25T08:23:34;11.30;99.90
7212;DHT22;3647;48.792;9.802;2023-04-25T08:26:01;11.10;99.90
7212;DHT22;3647;48.792;9.802;2023-04-25T08:28:28;10.80;99.90
7212;DHT22;3647;48.792;9.802;2023-04-25T08:30:57;10.80;99.90
7212;DHT22;3647;48.792;9.802;2023-04-25T08:33:24;11.00;99.90
7212;DHT22;3647;48.792;9.802;2023-04-25T08:35:51;11.20;99.90
7212;DHT22;3647;48.792;9.802;2023-04-25T08:38:17;11.00;99.90
7212;DHT22;3647;48.792;9.802;2023-04-25T08:40:49;11.10;99.90
7212;DHT22;3647;48.792;9.802;2023-04-25T08:43:18;10.70;99.90
7212;DHT22;3647;48.792;9.802;2023-04-25T08:45:46;10.40;99.90
7212;DHT22;3647;48.792;9.802;2023-04-25T08:48:16;10.20;99.90
7212;DHT22;3647;48.792;9.802;2023-04-25T08:50:48;10.70;99.90
7212;DHT22;3647;48.792;9.802;2023-04-25T08:55:46;10.10;99.90
7212;DHT22;3647;48.792;9.802;2023-04-25T08:58:13;10.30;99.90
7212;DHT22;3647;48.792;9.802;2023-04-25T09:00:40;10.50;99.90
7212;DHT22;3647;48.792;9.802;2023-04-25T09:03:07;10.70;99.90
7212;DHT22;3647;48.792;9.802;2023-04-25T09:05:36;11.00;99.90
7212;DHT22;3647;48.792;9.802;2023-04-25T09:08:03;10.90;99.90
7212;DHT22;3647;48.792;9.802;2023-04-25T09:10:31;10.70;99.90
7212;DHT22;3647;48.792;9.802;2023-04-25T09:13:06;10.60;99.90
7212;DHT22;3647;48.792;9.802;2023-04-25T09:15:46;10.70;99.90
7212;DHT22;3647;48.792;9.802;2023-04-25T09:18:22;10.60;99.90
7212;DHT22;3647;48.792;9.802;2023-04-25T09:20:51;10.70;99.90
7212;DHT22;3647;48.792;9.802;2023-04-25T09:23:20;10.10;99.90
7212;DHT22;3647;48.792;9.802;2023-04-25T09:25:48;10.20;99.90
7212;DHT22;3647;48.792;9.802;2023-04-25T09:28:16;10.10;99.90
7212;DHT22;3647;48.792;9.802;2023-04-25T09:30:43;10.30;99.90
7212;DHT22;3647;48.792;9.802;2023-04-25T09:33:12;10.30;99.90
7212;DHT22;3647;48.792;9.802;2023-04-25T09:35:40;10.20;99.90
7212;DHT22;3647;48.792;9.802;2023-04-25T09:38:10;10.10;99.90
7212;DHT22;3647;48.792;9.802;2023-04-25T09:40:41;10.50;99.90
7212;DHT22;3647;48.792;9.802;2023-04-25T09:43:18;10.30;99.90
7212;DHT22;3647;48.792;9.802;2023-04-25T09:45:46;10.20;99.90
7212;DHT22;3647;48.792;9.802;2023-04-25T09:48:17;11.80;99.90
7212;DHT22;3647;48.792;9.802;2023-04-25T09:50:45;9.70;99.90
7212;DHT22;3647;48.792;9.802;2023-04-25T09:53:13;9.70;99.90
7212;DHT22;3647;48.792;9.802;2023-04-25T09:55:42;9.70;99.90
7212;DHT22;3647;48.792;9.802;2023-04-25T09:58:11;11.80;99.90
7212;DHT22;3647;48.792;9.802;2023-04-25T10:00:38;10.10;99.90
7212;DHT22;3647;48.792;9.802;2023-04-25T10:03:05;10.40;99.90
7212;DHT22;3647;48.792;9.802;2023-04-25T10:05:34;10.40;99.90
7212;DHT22;3647;48.792;9.802;2023-04-25T10:08:03;11.70;99.90
7212;DHT22;3647;48.792;9.802;2023-04-25T10:10:36;10.50;99.90
7212;DHT22;3647;48.792;9.802;2023-04-25T10:13:04;12.90;99.90
7212;DHT22;3647;48.792;9.802;2023-04-25T10:15:34;10.80;99.90
7212;DHT22;3647;48.792;9.802;2023-04-25T10:18:02;10.90;99.90
7212;DHT22;3647;48.792;9.802;2023-04-25T10:20:29;11.00;99.90
7212;DHT22;3647;48.792;9.802;2023-04-25T10:23:02;11.00;99.90
7212;DHT22;3647;48.792;9.802;2023-04-25T10:25:30;11.00;99.90
7212;DHT22;3647;48.792;9.802;2023-04-25T10:27:59;11.00;99.90
7212;DHT22;3647;48.792;9.802;2023-04-25T10:30:26;11.10;99.90
7212;DHT22;3647;48.792;9.802;2023-04-25T10:32:55;11.20;99.90
7212;DHT22;3647;48.792;9.802;2023-04-25T10:35:25;11.40;99.90
7212;DHT22;3647;48.792;9.802;2023-04-25T10:37:59;11.60;99.90
7212;DHT22;3647;48.792;9.802;2023-04-25T10:40:27;11.70;99.90
7212;DHT22;3647;48.792;9.802;2023-04-25T10:42:54;11.90;99.90
7212;DHT22;3647;48.792;9.802;2023-04-25T10:45:22;11.80;99.90
7212;DHT22;3647;48.792;9.802;2023-04-25T10:47:49;11.70;99.90
7212;DHT22;3647;48.792;9.802;2023-04-25T10:50:16;13.00;99.90
7212;DHT22;3647;48.792;9.802;2023-04-25T10:52:44;11.20;99.90
7212;DHT22;3647;48.792;9.802;2023-04-25T10:55:12;11.00;99.90
7212;DHT22;3647;48.792;9.802;2023-04-25T10:57:40;10.80;99.90
7212;DHT22;3647;48.792;9.802;2023-04-25T11:00:13;10.70;99.90
7212;DHT22;3647;48.792;9.802;2023-04-25T11:02:46;10.50;99.90
7212;DHT22;3647;48.792;9.802;2023-04-25T11:05:23;10.30;99.90
7212;DHT22;3647;48.792;9.802;2023-04-25T11:07:54;10.30;99.90
7212;DHT22;3647;48.792;9.802;2023-04-25T11:10:25;10.20;99.90
7212;DHT22;3647;48.792;9.802;2023-04-25T11:12:53;10.90;99.90
7212;DHT22;3647;48.792;9.802;2023-04-25T11:15:20;9.90;99.90
7212;DHT22;3647;48.792;9.802;2023-04-25T11:17:48;9.80;99.90
7212;DHT22;3647;48.792;9.802;2023-04-25T11:20:15;9.70;99.90
7212;DHT22;3647;48.792;9.802;2023-04-25T11:22:44;9.60;99.90
7212;DHT22;3647;48.792;9.802;2023-04-25T11:25:13;9.60;99.90
7212;DHT22;3647;48.792;9.802;2023-04-25T11:27:50;9.40;99.90
7212;DHT22;3647;48.792;9.802;2023-04-25T11:30:17;9.30;99.90
7212;DHT22;3647;48.792;9.802;2023-04-25T11:32:44;9.20;99.90
7212;DHT22;3647;48.792;9.802;2023-04-25T11:35:13;9.20;99.90
7212;DHT22;3647;48.792;9.802;2023-04-25T11:37:41;9.00;99.90
7212;DHT22;3647;48.792;9.802;2023-04-25T11:40:10;8.90;99.90
7212;DHT22;3647;48.792;9.802;2023-04-25T11:45:06;8.60;99.90
7212;DHT22;3647;48.792;9.802;2023-04-25T11:47:33;8.60;99.90
7212;DHT22;3647;48.792;9.802;2023-04-25T11:52:40;8.50;99.90
7212;DHT22;3647;48.792;9.802;2023-04-25T11:55:08;8.40;99.90
7212;DHT22;3647;48.792;9.802;2023-04-25T11:57:35;8.30;99.90
7212;DHT22;3647;48.792;9.802;2023-04-25T12:00:09;8.20;99.90
7212;DHT22;3647;48.792;9.802;2023-04-25T12:02:41;8.20;99.90
7212;DHT22;3647;48.792;9.802;2023-04-25T12:05:08;8.20;99.90
7212;DHT22;3647;48.792;9.802;2023-04-25T12:07:36;8.30;99.90
7212;DHT22;3647;48.792;9.802;2023-04-25T12:10:09;8.10;99.90
7212;DHT22;3647;48.792;9.802;2023-04-25T12:12:37;8.20;99.90
7212;DHT22;3647;48.792;9.802;2023-04-25T12:15:12;8.10;99.90
7212;DHT22;3647;48.792;9.802;2023-04-25T12:20:09;8.30;99.90
7212;DHT22;3647;48.792;9.802;2023-04-25T12:22:36;8.40;99.90
7212;DHT22;3647;48.792;9.802;2023-04-25T12:25:04;8.50;99.90
7212;DHT22;3647;48.792;9.802;2023-04-25T12:27:32;8.60;99.90
7212;DHT22;3647;48.792;9.802;2023-04-25T12:32:27;8.80;99.90
7212;DHT22;3647;48.792;9.802;2023-04-25T12:34:54;9.00;99.90
7212;DHT22;3647;48.792;9.802;2023-04-25T12:37:21;9.20;99.90
7212;DHT22;3647;48.792;9.802;2023-04-25T12:39:47;9.20;99.90
7212;DHT22;3647;48.792;9.802;2023-04-25T12:42:14;9.30;99.90
7212;DHT22;3647;48.792;9.802;2023-04-25T12:44:42;9.50;99.90
7212;DHT22;3647;48.792;9.802;2023-04-25T12:47:09;9.60;99.90
7212;DHT22;3647;48.792;9.802;2023-04-25T12:49:36;9.80;99.90
7212;DHT22;3647;48.792;9.802;2023-04-25T12:54:30;10.00;99.90
7212;DHT22;3647;48.792;9.802;2023-04-25T12:56:57;10.20;99.90
7212;DHT22;3647;48.792;9.802;2023-04-25T12:59:24;10.40;99.90
7212;DHT22;3647;48.792;9.802;2023-04-25T13:01:52;10.70;99.90
7212;DHT22;3647;48.792;9.802;2023-04-25T13:04:19;11.00;99.90
7212;DHT22;3647;48.792;9.802;2023-04-25T13:06:46;11.20;99.90
7212;DHT22;3647;48.792;9.802;2023-04-25T13:09:13;11.40;99.90
7212;DHT22;3647;48.792;9.802;2023-04-25T13:11:41;11.60;99.90
7212;DHT22;3647;48.792;9.802;2023-04-25T13:14:07;11.60;99.90
7212;DHT22;3647;48.792;9.802;2023-04-25T13:16:34;11.80;99.90
7212;DHT22;3647;48.792;9.802;2023-04-25T13:19:03;11.80;99.90
7212;DHT22;3647;48.792;9.802;2023-04-25T13:21:31;11.70;99.90
7212;DHT22;3647;48.792;9.802;2023-04-25T13:23:58;11.50;99.90
7212;DHT22;3647;48.792;9.802;2023-04-25T13:26:26;11.40;99.90
7212;DHT22;3647;48.792;9.802;2023-04-25T13:28:52;11.30;99.90
7212;DHT22;3647;48.792;9.802;2023-04-25T13:31:19;11.20;99.90
7212;DHT22;3647;48.792;9.802;2023-04-25T13:33:46;10.90;99.90
7212;DHT22;3647;48.792;9.802;2023-04-25T13:36:14;10.70;99.90
7212;DHT22;3647;48.792;9.802;2023-04-25T13:38:41;11.00;99.90
7212;DHT22;3647;48.792;9.802;2023-04-25T13:41:09;10.80;99.90
7212;DHT22;3647;48.792;9.802;2023-04-25T13:43:36;10.80;99.90
7212;DHT22;3647;48.792;9.802;2023-04-25T13:46:03;10.90;99.90
7212;DHT22;3647;48.792;9.802;2023-04-25T13:48:30;10.90;99.90
7212;DHT22;3647;48.792;9.802;2023-04-25T13:50:57;10.90;99.90
7212;DHT22;3647;48.792;9.802;2023-04-25T13:53:25;10.90;99.90
7212;DHT22;3647;48.792;9.802;2023-04-25T13:55:52;11.00;99.90
7212;DHT22;3647;48.792;9.802;2023-04-25T13:58:19;11.00;99.90
7212;DHT22;3647;48.792;9.802;2023-04-25T14:00:46;11.00;99.90
7212;DHT22;3647;48.792;9.802;2023-04-25T14:03:13;13.90;99.90
7212;DHT22;3647;48.792;9.802;2023-04-25T14:05:40;11.30;99.90
7212;DHT22;3647;48.792;9.802;2023-04-25T14:08:08;11.40;99.90
7212;DHT22;3647;48.792;9.802;2023-04-25T14:10:36;11.50;99.90
7212;DHT22;3647;48.792;9.802;2023-04-25T14:13:04;11.40;99.90
7212;DHT22;3647;48.792;9.802;2023-04-25T14:15:32;11.30;99.90
7212;DHT22;3647;48.792;9.802;2023-04-25T14:17:59;11.30;99.90
7212;DHT22;3647;48.792;9.802;2023-04-25T14:20:27;11.20;99.90
7212;DHT22;3647;48.792;9.802;2023-04-25T14:22:54;11.20;99.90
7212;DHT22;3647;48.792;9.802;2023-04-25T14:25:21;11.10;99.90
7212;DHT22;3647;48.792;9.802;2023-04-25T14:27:50;11.10;99.90
7212;DHT22;3647;48.792;9.802;2023-04-25T14:30:17;10.80;99.90
7212;DHT22;3647;48.792;9.802;2023-04-25T14:32:44;10.70;99.90
7212;DHT22;3647;48.792;9.802;2023-04-25T14:35:11;10.60;99.90
7212;DHT22;3647;48.792;9.802;2023-04-25T14:37:38;10.60;99.90
7212;DHT22;3647;48.792;9.802;2023-04-25T14:40:05;10.70;99.90
7212;DHT22;3647;48.792;9.802;2023-04-25T14:42:34;10.70;99.90
7212;DHT22;3647;48.792;9.802;2023-04-25T14:45:02;10.90;99.90
7212;DHT22;3647;48.792;9.802;2023-04-25T14:47:29;11.10;99.90
7212;DHT22;3647;48.792;9.802;2023-04-25T14:49:56;11.60;99.90
7212;DHT22;3647;48.792;9.802;2023-04-25T14:52:23;11.90;99.90
7212;DHT22;3647;48.792;9.802;2023-04-25T14:54:51;11.70;99.90
7212;DHT22;3647;48.792;9.802;2023-04-25T14:57:18;11.90;99.90
7212;DHT22;3647;48.792;9.802;2023-04-25T14:59:45;11.90;99.90
7212;DHT22;3647;48.792;9.802;2023-04-25T15:02:14;11.70;99.90
7212;DHT22;3647;48.792;9.802;2023-04-25T15:04:41;10.30;99.90
7212;DHT22;3647;48.792;9.802;2023-04-25T15:07:08;11.40;99.90
7212;DHT22;3647;48.792;9.802;2023-04-25T15:09:35;11.30;99.90
7212;DHT22;3647;48.792;9.802;2023-04-25T15:12:02;12.80;99.90
7212;DHT22;3647;48.792;9.802;2023-04-25T15:14:29;11.10;99.90
7212;DHT22;3647;48.792;9.802;2023-04-25T15:16:56;11.00;99.90
7212;DHT22;3647;48.792;9.802;2023-04-25T15:19:24;10.80;99.90
7212;DHT22;3647;48.792;9.802;2023-04-25T15:21:51;10.80;99.90
7212;DHT22;3647;48.792;9.802;2023-04-25T15:24:18;9.60;99.90
7212;DHT22;3647;48.792;9.802;2023-04-25T15:26:44;9.10;99.90
7212;DHT22;3647;48.792;9.802;2023-04-25T15:29:12;8.80;99.90
7212;DHT22;3647;48.792;9.802;2023-04-25T15:34:06;8.80;99.90
7212;DHT22;3647;48.792;9.802;2023-04-25T15:36:34;8.80;99.90
7212;DHT22;3647;48.792;9.802;2023-04-25T15:39:01;8.70;99.90
7212;DHT22;3647;48.792;9.802;2023-04-25T15:41:28;8.70;99.90
7212;DHT22;3647;48.792;9.802;2023-04-25T15:43:55;8.70;99.90
7212;DHT22;3647;48.792;9.802;2023-04-25T15:46:22;8.70;99.90
7212;DHT22;3647;48.792;9.802;2023-04-25T15:48:49;8.70;99.90
7212;DHT22;3647;48.792;9.802;2023-04-25T15:51:15;8.80;99.90
7212;DHT22;3647;48.792;9.802;2023-04-25T15:53:44;8.60;99.90
7212;DHT22;3647;48.792;9.802;2023-04-25T15:56:11;8.50;99.90
7212;DHT22;3647;48.792;9.802;2023-04-25T16:01:05;8.30;99.90
7212;DHT22;3647;48.792;9.802;2023-04-25T16:03:32;8.30;99.90
7212;DHT22;3647;48.792;9.802;2023-04-25T16:11:00;7.90;99.90
7212;DHT22;3647;48.792;9.802;2023-04-25T16:18:22;7.90;99.90
7212;DHT22;3647;48.792;9.802;2023-04-25T16:23:16;9.90;99.90
7212;DHT22;3647;48.792;9.802;2023-04-25T16:28:12;8.10;99.90
7212;DHT22;3647;48.792;9.802;2023-04-25T16:33:06;8.40;99.90
7212;DHT22;3647;48.792;9.802;2023-04-25T16:38:00;8.40;99.90
7212;DHT22;3647;48.792;9.802;2023-04-25T16:40:27;8.40;99.90
7212;DHT22;3647;48.792;9.802;2023-04-25T16:42:54;8.40;99.90
7212;DHT22;3647;48.792;9.802;2023-04-25T16:45:22;8.40;99.90
7212;DHT22;3647;48.792;9.802;2023-04-25T16:47:50;8.40;99.90
7212;DHT22;3647;48.792;9.802;2023-04-25T16:50:18;8.40;99.90
7212;DHT22;3647;48.792;9.802;2023-04-25T16:52:45;8.30;99.90
7212;DHT22;3647;48.792;9.802;2023-04-25T16:55:11;8.90;99.90
7212;DHT22;3647;48.792;9.802;2023-04-25T16:57:38;11.00;99.90
7212;DHT22;3647;48.792;9.802;2023-04-25T17:00:06;8.60;99.90
7212;DHT22;3647;48.792;9.802;2023-04-25T17:02:36;8.60;99.90
7212;DHT22;3647;48.792;9.802;2023-04-25T17:05:03;8.80;99.90
7212;DHT22;3647;48.792;9.802;2023-04-25T17:07:30;8.80;99.90
7212;DHT22;3647;48.792;9.802;2023-04-25T17:09:58;8.70;99.90
7212;DHT22;3647;48.792;9.802;2023-04-25T17:12:25;8.60;99.90
7212;DHT22;3647;48.792;9.802;2023-04-25T17:14:52;8.50;99.90
7212;DHT22;3647;48.792;9.802;2023-04-25T17:17:19;9.90;99.90
7212;DHT22;3647;48.792;9.802;2023-04-25T17:19:47;8.80;99.90
7212;DHT22;3647;48.792;9.802;2023-04-25T17:22:14;8.40;99.90
7212;DHT22;3647;48.792;9.802;2023-04-25T17:24:41;7.20;99.90
7212;DHT22;3647;48.792;9.802;2023-04-25T17:27:09;9.80;99.90
7212;DHT22;3647;48.792;9.802;2023-04-25T17:29:36;9.00;99.90
7212;DHT22;3647;48.792;9.802;2023-04-25T17:32:03;8.40;99.90
7212;DHT22;3647;48.792;9.802;2023-04-25T17:34:30;8.40;99.90
7212;DHT22;3647;48.792;9.802;2023-04-25T17:36:58;10.40;99.90
7212;DHT22;3647;48.792;9.802;2023-04-25T17:39:25;8.30;99.90
7212;DHT22;3647;48.792;9.802;2023-04-25T17:41:52;8.30;99.90
7212;DHT22;3647;48.792;9.802;2023-04-25T17:44:19;8.30;99.90
7212;DHT22;3647;48.792;9.802;2023-04-25T17:46:46;8.30;99.90
7212;DHT22;3647;48.792;9.802;2023-04-25T17:49:13;8.30;99.90
7212;DHT22;3647;48.792;9.802;2023-04-25T17:51:40;8.30;99.90
7212;DHT22;3647;48.792;9.802;2023-04-25T17:54:08;8.30;99.90
7212;DHT22;3647;48.792;9.802;2023-04-25T17:56:36;8.20;99.90
7212;DHT22;3647;48.792;9.802;2023-04-25T17:59:03;8.20;99.90
7212;DHT22;3647;48.792;9.802;2023-04-25T18:01:30;8.20;99.90
7212;DHT22;3647;48.792;9.802;2023-04-25T18:04:00;8.20;99.90
7212;DHT22;3647;48.792;9.802;2023-04-25T18:06:28;8.20;99.90
7212;DHT22;3647;48.792;9.802;2023-04-25T18:08:57;8.30;99.90
7212;DHT22;3647;48.792;9.802;2023-04-25T18:11:25;8.30;99.90
7212;DHT22;3647;48.792;9.802;2023-04-25T18:13:53;8.20;99.90
7212;DHT22;3647;48.792;9.802;2023-04-25T18:16:20;8.20;99.90
7212;DHT22;3647;48.792;9.802;2023-04-25T18:18:47;8.10;99.90
7212;DHT22;3647;48.792;9.802;2023-04-25T18:21:17;10.20;99.90
7212;DHT22;3647;48.792;9.802;2023-04-25T18:23:44;8.10;99.90
7212;DHT22;3647;48.792;9.802;2023-04-25T18:26:11;9.80;99.90
7212;DHT22;3647;48.792;9.802;2023-04-25T18:28:41;8.60;99.90
7212;DHT22;3647;48.792;9.802;2023-04-25T18:31:08;8.00;99.90
7212;DHT22;3647;48.792;9.802;2023-04-25T18:33:36;8.00;99.90
7212;DHT22;3647;48.792;9.802;2023-04-25T18:36:03;8.00;99.90
7212;DHT22;3647;48.792;9.802;2023-04-25T18:38:30;8.00;99.90
7212;DHT22;3647;48.792;9.802;2023-04-25T18:40:57;8.00;99.90
7212;DHT22;3647;48.792;9.802;2023-04-25T18:43:26;8.00;99.90
7212;DHT22;3647;48.792;9.802;2023-04-25T18:45:54;8.00;99.90
7212;DHT22;3647;48.792;9.802;2023-04-25T18:48:21;7.90;99.90
7212;DHT22;3647;48.792;9.802;2023-04-25T18:50:48;7.80;99.90
7212;DHT22;3647;48.792;9.802;2023-04-25T18:53:16;8.90;99.90
7212;DHT22;3647;48.792;9.802;2023-04-25T18:55:43;7.80;99.90
7212;DHT22;3647;48.792;9.802;2023-04-25T18:58:11;7.90;99.90
7212;DHT22;3647;48.792;9.802;2023-04-25T19:00:38;7.80;99.90
7212;DHT22;3647;48.792;9.802;2023-04-25T19:03:08;7.80;99.90
7212;DHT22;3647;48.792;9.802;2023-04-25T19:05:36;7.70;99.90
7212;DHT22;3647;48.792;9.802;2023-04-25T19:08:03;7.80;99.90
7212;DHT22;3647;48.792;9.802;2023-04-25T19:10:30;7.80;99.90
7212;DHT22;3647;48.792;9.802;2023-04-25T19:12:58;7.80;99.90
7212;DHT22;3647;48.792;9.802;2023-04-25T19:15:27;7.70;99.90
7212;DHT22;3647;48.792;9.802;2023-04-25T19:17:57;7.70;99.90
7212;DHT22;3647;48.792;9.802;2023-04-25T19:20:26;7.70;99.90
7212;DHT22;3647;48.792;9.802;2023-04-25T19:22:54;7.70;99.90
7212;DHT22;3647;48.792;9.802;2023-04-25T19:25:21;7.70;99.90
7212;DHT22;3647;48.792;9.802;2023-04-25T19:27:49;7.70;99.90
7212;DHT22;3647;48.792;9.802;2023-04-25T19:30:25;7.60;99.90
7212;DHT22;3647;48.792;9.802;2023-04-25T19:32:53;7.30;99.90
7212;DHT22;3647;48.792;9.802;2023-04-25T19:35:23;7.50;99.90
7212;DHT22;3647;48.792;9.802;2023-04-25T19:37:56;8.30;99.90
7212;DHT22;3647;48.792;9.802;2023-04-25T19:40:24;7.40;99.90
7212;DHT22;3647;48.792;9.802;2023-04-25T19:42:51;7.40;99.90
7212;DHT22;3647;48.792;9.802;2023-04-25T19:45:19;7.30;99.90
7212;DHT22;3647;48.792;9.802;2023-04-25T19:47:46;7.30;99.90
7212;DHT22;3647;48.792;9.802;2023-04-25T19:50:15;7.80;99.90
7212;DHT22;3647;48.792;9.802;2023-04-25T19:52:43;7.30;99.90
7212;DHT22;3647;48.792;9.802;2023-04-25T19:55:26;7.20;99.90
7212;DHT22;3647;48.792;9.802;2023-04-25T19:57:54;7.20;99.90
7212;DHT22;3647;48.792;9.802;2023-04-25T20:00:21;7.20;99.90
7212;DHT22;3647;48.792;9.802;2023-04-25T20:02:48;7.20;99.90
7212;DHT22;3647;48.792;9.802;2023-04-25T20:05:18;8.60;99.90
7212;DHT22;3647;48.792;9.802;2023-04-25T20:07:45;7.20;99.90
7212;DHT22;3647;48.792;9.802;2023-04-25T20:10:13;7.20;99.90
7212;DHT22;3647;48.792;9.802;2023-04-25T20:12:44;7.20;99.90
7212;DHT22;3647;48.792;9.802;2023-04-25T20:15:11;9.00;99.90
7212;DHT22;3647;48.792;9.802;2023-04-25T20:17:41;7.20;99.90
7212;DHT22;3647;48.792;9.802;2023-04-25T20:20:08;7.20;99.90
7212;DHT22;3647;48.792;9.802;2023-04-25T20:22:46;7.20;99.90
7212;DHT22;3647;48.792;9.802;2023-04-25T20:25:15;7.20;99.90
7212;DHT22;3647;48.792;9.802;2023-04-25T20:27:48;7.20;99.90
7212;DHT22;3647;48.792;9.802;2023-04-25T20:30:15;7.20;99.90
7212;DHT22;3647;48.792;9.802;2023-04-25T20:32:45;7.10;99.90
7212;DHT22;3647;48.792;9.802;2023-04-25T20:35:13;7.10;99.90
7212;DHT22;3647;48.792;9.802;2023-04-25T20:37:40;7.10;99.90
7212;DHT22;3647;48.792;9.802;2023-04-25T20:40:07;7.00;99.90
7212;DHT22;3647;48.792;9.802;2023-04-25T20:42:35;7.00;99.90
7212;DHT22;3647;48.792;9.802;2023-04-25T20:45:05;8.20;99.90
7212;DHT22;3647;48.792;9.802;2023-04-25T20:47:37;7.00;99.90
7212;DHT22;3647;48.792;9.802;2023-04-25T20:50:04;6.90;99.90
7212;DHT22;3647;48.792;9.802;2023-04-25T20:52:32;6.90;99.90
